createdAt,value
2022-11-15T00:00:23.747Z,21.00
2022-11-15T00:03:09.030Z,21.23
2022-11-15T00:05:54.510Z,20.90
2022-11-15T00:08:39.661Z,21.42
2022-11-15T00:11:25.135Z,22.17
2022-11-15T00:14:10.552Z,21.10
2022-11-15T00:16:55.937Z,20.95
2022-11-15T00:19:41.242Z,21.65
2022-11-15T00:22:26.467Z,22.08
2022-11-15T00:25:11.819Z,21.38
2022-11-15T00:27:58.112Z,21.92
2022-11-15T00:30:43.713Z,21.98
2022-11-15T00:33:29.499Z,20.67
2022-11-15T00:36:15.184Z,21.20
2022-11-15T00:39:00.488Z,22.25
2022-11-15T00:41:45.738Z,22.73
2022-11-15T00:44:31.154Z,22.67
2022-11-15T00:47:16.250Z,22.05
2022-11-15T00:50:01.676Z,22.10
2022-11-15T00:52:47.029Z,22.95
2022-11-15T00:55:32.271Z,22.50
2022-11-15T00:58:17.665Z,21.88
2022-11-15T01:01:13.765Z,22.45
2022-11-15T01:04:01.425Z,22.30
2022-11-15T01:06:46.989Z,23.33
2022-11-15T01:09:32.288Z,22.48
2022-11-15T01:12:17.570Z,23.08
2022-11-15T01:15:03.037Z,22.55
2022-11-15T01:17:48.535Z,23.63
2022-11-15T01:20:33.831Z,22.50
2022-11-15T01:23:19.353Z,23.00
2022-11-15T01:26:05.907Z,21.92
2022-11-15T01:28:51.975Z,22.95
2022-11-15T01:31:37.361Z,22.90
2022-11-15T01:34:22.743Z,21.42
2022-11-15T01:37:08.052Z,22.95
2022-11-15T01:39:53.378Z,22.65
2022-11-15T01:42:38.865Z,23.17
2022-11-15T01:45:24.395Z,22.33
2022-11-15T01:48:11.308Z,22.42
2022-11-15T01:50:56.854Z,24.25
2022-11-15T01:53:43.919Z,23.75
2022-11-15T01:56:31.675Z,22.30
2022-11-15T01:59:16.969Z,22.52
2022-11-15T02:02:02.399Z,23.30
2022-11-15T02:04:48.411Z,23.73
2022-11-15T02:07:35.632Z,22.65
2022-11-15T02:10:23.939Z,23.25
2022-11-15T02:13:09.468Z,24.10
2022-11-15T02:16:16.647Z,23.13
2022-11-15T02:19:32.688Z,23.13
2022-11-15T02:22:27.272Z,23.35
2022-11-15T02:25:15.805Z,24.45
2022-11-15T02:28:26.109Z,23.08
2022-11-15T02:31:20.868Z,22.13
2022-11-15T02:34:43.939Z,23.00
2022-11-15T02:37:38.116Z,23.50
2022-11-15T02:40:40.300Z,22.63
2022-11-15T02:44:01.174Z,22.85
2022-11-15T02:47:11.419Z,22.88
2022-11-15T02:50:00.401Z,22.80
2022-11-15T02:52:50.156Z,23.48
2022-11-15T02:55:40.390Z,22.23
2022-11-15T02:58:38.089Z,22.50
2022-11-15T03:01:27.614Z,22.48
2022-11-15T03:04:48.557Z,21.60
2022-11-15T03:07:45.655Z,22.52
2022-11-15T03:11:00.767Z,24.02
2022-11-15T03:14:18.767Z,21.65
2022-11-15T03:17:12.344Z,20.90
2022-11-15T03:19:59.917Z,21.70
2022-11-15T03:22:47.765Z,21.73
2022-11-15T03:25:34.452Z,21.05
2022-11-15T03:28:24.863Z,23.23
2022-11-15T03:31:50.963Z,21.10
2022-11-15T03:35:05.351Z,22.45
2022-11-15T03:38:14.102Z,22.20
2022-11-15T03:41:05.664Z,21.80
2022-11-15T03:43:58.014Z,21.67
2022-11-15T03:47:04.063Z,23.73
2022-11-15T03:49:54.396Z,21.63
2022-11-15T03:52:41.045Z,22.17
2022-11-15T03:55:26.471Z,21.45
2022-11-15T03:58:11.940Z,21.77
2022-11-15T04:00:57.172Z,21.40
2022-11-15T04:03:42.609Z,22.05
2022-11-15T04:06:27.937Z,21.70
2022-11-15T04:09:13.316Z,22.45
2022-11-15T04:11:58.697Z,21.70
2022-11-15T04:15:03.998Z,22.08
2022-11-15T04:17:57.572Z,21.85
2022-11-15T04:21:01.899Z,22.92
2022-11-15T04:24:05.966Z,21.92
2022-11-15T04:26:51.993Z,21.38
2022-11-15T04:29:37.196Z,22.70
2022-11-15T04:32:22.762Z,23.25
2022-11-15T04:35:08.516Z,22.08
2022-11-15T04:37:54.109Z,21.80
2022-11-15T04:40:39.499Z,22.33
2022-11-15T04:43:24.487Z,22.45
2022-11-15T04:46:09.915Z,22.58
2022-11-15T04:48:58.872Z,22.02
2022-11-15T04:51:45.540Z,22.33
2022-11-15T04:54:32.623Z,21.27
2022-11-15T04:57:18.124Z,26.27
2022-11-15T05:00:06.149Z,31.60
2022-11-15T05:03:10.698Z,27.05
2022-11-15T05:05:56.552Z,24.15
2022-11-15T05:08:41.850Z,23.58
2022-11-15T05:11:28.515Z,22.80
2022-11-15T05:14:14.168Z,23.27
2022-11-15T05:16:59.529Z,24.65
2022-11-15T05:19:45.770Z,23.80
2022-11-15T05:22:31.334Z,23.50
2022-11-15T05:25:16.810Z,22.42
2022-11-15T05:28:02.298Z,21.80
2022-11-15T05:30:47.540Z,23.50
2022-11-15T05:33:34.092Z,22.27
2022-11-15T05:36:36.122Z,21.63
2022-11-15T05:39:21.752Z,23.23
2022-11-15T05:42:14.668Z,21.80
2022-11-15T05:45:01.085Z,22.23
2022-11-15T05:47:46.848Z,21.77
2022-11-15T05:50:32.336Z,21.85
2022-11-15T05:53:21.041Z,21.90
2022-11-15T05:56:07.789Z,21.13
2022-11-15T05:58:59.257Z,22.05
2022-11-15T06:01:45.050Z,21.17
2022-11-15T06:04:30.332Z,21.15
2022-11-15T06:07:15.705Z,21.30
2022-11-15T06:10:01.074Z,21.83
2022-11-15T06:12:46.196Z,21.20
2022-11-15T06:15:33.339Z,21.25
2022-11-15T06:18:19.096Z,23.30
2022-11-15T06:21:05.737Z,21.83
2022-11-15T06:23:51.222Z,21.85
2022-11-15T06:26:36.554Z,22.30
2022-11-15T06:29:21.973Z,20.73
2022-11-15T06:32:07.963Z,22.25
2022-11-15T06:34:53.632Z,22.35
2022-11-15T06:37:38.895Z,21.52
2022-11-15T06:40:24.252Z,20.92
2022-11-15T06:43:09.984Z,21.17
2022-11-15T06:45:55.389Z,22.10
2022-11-15T06:48:40.856Z,21.02
2022-11-15T06:51:26.395Z,19.92
2022-11-15T06:54:11.722Z,20.95
2022-11-15T06:56:57.027Z,20.42
2022-11-15T06:59:42.593Z,20.65
2022-11-15T07:02:28.054Z,20.73
2022-11-15T07:05:14.551Z,22.13
2022-11-15T07:08:00.491Z,21.20
2022-11-15T07:10:45.925Z,21.33
2022-11-15T07:13:34.882Z,20.80
2022-11-15T07:16:20.436Z,20.52
2022-11-15T07:19:05.703Z,21.15
2022-11-15T07:21:51.282Z,20.83
2022-11-15T07:24:36.628Z,21.73
2022-11-15T07:27:22.078Z,22.08
2022-11-15T07:30:08.335Z,24.92
2022-11-15T07:32:58.276Z,24.80
2022-11-15T07:35:50.740Z,22.50
2022-11-15T07:38:42.453Z,23.67
2022-11-15T07:41:28.373Z,23.50
2022-11-15T07:44:15.312Z,22.67
2022-11-15T07:47:00.885Z,23.70
2022-11-15T07:49:47.567Z,23.20
2022-11-15T07:52:33.397Z,23.48
2022-11-15T07:55:18.976Z,23.25
2022-11-15T07:58:09.406Z,22.52
2022-11-15T08:00:56.093Z,20.92
2022-11-15T08:03:41.370Z,22.58
2022-11-15T08:06:26.791Z,23.17
2022-11-15T08:09:12.193Z,24.38
2022-11-15T08:11:57.437Z,24.73
2022-11-15T08:14:43.644Z,24.80
2022-11-15T08:17:33.128Z,24.77
2022-11-15T08:20:18.587Z,25.30
2022-11-15T08:23:05.412Z,25.02
2022-11-15T08:25:50.527Z,24.95
2022-11-15T08:28:35.995Z,25.17
2022-11-15T08:31:21.456Z,24.92
2022-11-15T08:34:07.880Z,25.00
2022-11-15T08:36:53.247Z,23.27
2022-11-15T08:39:39.078Z,23.50
2022-11-15T08:42:24.465Z,24.83
2022-11-15T08:45:10.480Z,22.73
2022-11-15T08:47:56.115Z,23.55
2022-11-15T08:50:41.793Z,22.60
2022-11-15T08:53:27.134Z,22.70
2022-11-15T08:56:14.311Z,21.58
2022-11-15T08:59:00.000Z,21.98
2022-11-15T09:01:45.355Z,20.67
2022-11-15T09:04:30.761Z,18.92
2022-11-15T09:07:16.707Z,19.33
2022-11-15T09:10:01.984Z,17.95
2022-11-15T09:12:49.589Z,18.77
2022-11-15T09:15:35.257Z,17.58
2022-11-15T09:18:22.404Z,17.58
2022-11-15T09:21:08.159Z,16.73
2022-11-15T09:23:53.761Z,16.55
2022-11-15T09:26:39.418Z,15.63
2022-11-15T09:29:24.661Z,14.80
2022-11-15T09:32:10.098Z,15.77
2022-11-15T09:34:55.743Z,16.10
2022-11-15T09:37:41.192Z,16.13
2022-11-15T09:40:27.414Z,16.60
2022-11-15T09:43:37.815Z,15.75
2022-11-15T09:46:49.252Z,15.18
2022-11-15T09:49:34.896Z,15.10
2022-11-15T09:52:24.649Z,15.60
2022-11-15T09:54:54.906Z,15.10
2022-11-15T09:57:37.914Z,16.65
2022-11-15T10:03:16.325Z,15.60
2022-11-15T10:05:55.658Z,14.77
2022-11-15T10:09:02.168Z,14.90
2022-11-15T10:11:37.746Z,14.80
2022-11-15T10:14:25.433Z,15.00
2022-11-15T10:17:04.411Z,13.82
2022-11-15T10:19:33.987Z,12.98
2022-11-15T10:22:39.447Z,12.75
2022-11-15T10:25:24.076Z,13.23
2022-11-15T10:27:59.416Z,13.52
2022-11-15T10:30:37.902Z,12.50
2022-11-15T10:33:36.617Z,12.90
2022-11-15T10:36:09.534Z,11.80
2022-11-15T10:38:51.759Z,11.30
2022-11-15T10:41:27.608Z,12.15
2022-11-15T10:44:23.813Z,12.57
2022-11-15T10:46:56.599Z,12.63
2022-11-15T10:49:23.200Z,11.90
2022-11-15T10:51:54.676Z,13.40
2022-11-15T10:54:28.303Z,12.45
2022-11-15T10:56:57.483Z,12.45
2022-11-15T10:59:39.030Z,11.98
2022-11-15T11:02:26.213Z,11.02
2022-11-15T11:04:53.416Z,11.55
2022-11-15T11:07:26.434Z,11.00
2022-11-15T11:10:22.808Z,8.82
2022-11-15T11:12:53.120Z,10.45
2022-11-15T11:15:20.272Z,10.18
2022-11-15T11:18:03.142Z,9.85
2022-11-15T11:20:54.456Z,8.73
2022-11-15T11:23:21.242Z,9.48
2022-11-15T11:26:09.032Z,9.25
2022-11-15T11:28:56.529Z,9.15
2022-11-15T11:31:35.540Z,9.45
2022-11-15T11:34:14.903Z,8.85
2022-11-15T11:36:55.019Z,9.88
2022-11-15T11:39:40.702Z,9.50
2022-11-15T11:42:22.666Z,9.50
2022-11-15T11:45:11.486Z,8.75
2022-11-15T11:47:42.157Z,9.32
2022-11-15T11:50:16.351Z,9.07
2022-11-15T11:53:04.397Z,9.30
2022-11-15T11:55:39.873Z,9.90
2022-11-15T11:58:20.924Z,10.00
2022-11-15T12:00:53.174Z,9.88
2022-11-15T12:03:38.071Z,9.98
2022-11-15T12:06:22.604Z,9.40
2022-11-15T12:09:01.570Z,10.07
2022-11-15T12:11:52.715Z,9.70
2022-11-15T12:14:28.768Z,8.95
2022-11-15T12:16:55.743Z,9.23
2022-11-15T12:19:22.599Z,10.18
2022-11-15T12:22:21.854Z,9.52
2022-11-15T12:25:00.908Z,9.38
2022-11-15T12:27:34.671Z,9.15
2022-11-15T12:30:12.354Z,9.15
2022-11-15T12:32:40.289Z,9.02
2022-11-15T12:35:23.105Z,8.82
2022-11-15T12:37:59.144Z,8.88
2022-11-15T12:40:34.400Z,8.85
2022-11-15T12:43:16.936Z,8.30
2022-11-15T12:45:45.556Z,8.52
2022-11-15T12:48:18.380Z,8.55
2022-11-15T12:50:59.618Z,8.07
2022-11-15T12:53:26.376Z,8.38
2022-11-15T12:56:10.355Z,7.13
2022-11-15T12:58:59.360Z,8.10
2022-11-15T13:01:32.312Z,7.40
2022-11-15T13:04:20.916Z,7.03
2022-11-15T13:06:53.319Z,8.38
2022-11-15T13:09:29.436Z,7.57
2022-11-15T13:11:57.596Z,7.55
2022-11-15T13:14:46.919Z,6.88
2022-11-15T13:17:22.827Z,7.07
2022-11-15T13:20:07.988Z,8.02
2022-11-15T13:22:52.524Z,7.15
2022-11-15T13:25:25.253Z,7.97
2022-11-15T13:27:52.426Z,7.80
2022-11-15T13:30:27.426Z,6.68
2022-11-15T13:32:54.700Z,7.13
2022-11-15T13:35:23.671Z,7.40
2022-11-15T13:37:51.246Z,7.00
2022-11-15T13:40:33.894Z,7.05
2022-11-15T13:43:00.895Z,6.80
2022-11-15T13:45:28.161Z,6.90
2022-11-15T13:47:57.122Z,7.75
2022-11-15T13:50:31.068Z,7.18
2022-11-15T13:53:00.130Z,6.68
2022-11-15T13:55:27.246Z,7.85
2022-11-15T13:58:06.935Z,7.95
2022-11-15T14:00:43.274Z,7.72
2022-11-15T14:03:19.421Z,7.60
2022-11-15T14:06:13.704Z,8.15
2022-11-15T14:08:41.747Z,7.28
2022-11-15T14:11:20.335Z,6.70
2022-11-15T14:14:06.090Z,8.25
2022-11-15T14:16:47.565Z,7.00
2022-11-15T14:19:26.352Z,7.95
2022-11-15T14:22:09.383Z,7.07
2022-11-15T14:24:36.836Z,7.00
2022-11-15T14:27:26.462Z,6.55
2022-11-15T14:29:54.182Z,7.20
2022-11-15T14:32:29.314Z,7.45
2022-11-15T14:34:58.946Z,7.47
2022-11-15T14:37:37.944Z,7.10
2022-11-15T14:40:06.925Z,7.75
2022-11-15T14:42:35.880Z,7.25
2022-11-15T14:45:02.551Z,6.85
2022-11-15T14:47:29.254Z,7.57
2022-11-15T14:49:55.939Z,6.70
2022-11-15T14:52:36.744Z,6.95
2022-11-15T14:55:10.370Z,6.93
2022-11-15T14:57:37.104Z,7.65
2022-11-15T15:00:05.247Z,8.30
2022-11-15T15:02:42.464Z,8.98
2022-11-15T15:05:32.499Z,8.20
2022-11-15T15:07:59.553Z,8.57
2022-11-15T15:10:44.346Z,7.97
2022-11-15T15:13:23.887Z,8.13
2022-11-15T15:15:51.721Z,8.73
2022-11-15T15:18:20.758Z,8.50
2022-11-15T15:20:53.749Z,7.88
2022-11-15T15:23:21.176Z,8.18
2022-11-15T15:25:50.258Z,8.15
2022-11-15T15:28:17.365Z,8.27
2022-11-15T15:30:44.234Z,9.02
2022-11-15T15:33:11.137Z,8.85
2022-11-15T15:35:38.059Z,8.38
2022-11-15T15:38:05.915Z,8.90
2022-11-15T15:40:34.384Z,8.93
2022-11-15T15:43:01.545Z,8.80
2022-11-15T15:45:28.970Z,10.07
2022-11-15T15:47:55.918Z,10.23
2022-11-15T15:50:31.341Z,9.95
2022-11-15T15:53:00.069Z,9.88
2022-11-15T15:55:27.518Z,9.52
2022-11-15T15:57:54.800Z,9.68
2022-11-15T16:00:24.146Z,9.88
2022-11-15T16:02:51.594Z,10.25
2022-11-15T16:05:18.933Z,9.95
2022-11-15T16:07:46.041Z,11.05
2022-11-15T16:10:23.343Z,10.43
2022-11-15T16:12:50.206Z,11.07
2022-11-15T16:15:17.596Z,11.15
2022-11-15T16:18:14.186Z,10.93
2022-11-15T16:20:43.433Z,11.23
2022-11-15T16:23:12.113Z,11.15
2022-11-15T16:25:42.582Z,10.75
2022-11-15T16:28:17.365Z,11.20
2022-11-15T16:30:44.041Z,11.30
2022-11-15T16:33:10.877Z,11.68
2022-11-15T16:35:37.561Z,10.52
2022-11-15T16:38:04.237Z,11.60
2022-11-15T16:40:33.343Z,11.98
2022-11-15T16:43:03.000Z,12.00
2022-11-15T16:45:30.232Z,11.82
2022-11-15T16:47:57.480Z,12.18
2022-11-15T16:50:26.539Z,12.45
2022-11-15T16:52:54.718Z,11.32
2022-11-15T16:55:22.860Z,12.15
2022-11-15T16:57:49.833Z,12.80
2022-11-15T17:00:17.814Z,13.20
2022-11-15T17:02:49.034Z,12.63
2022-11-15T17:05:20.216Z,12.55
2022-11-15T17:07:54.331Z,13.35
2022-11-15T17:10:26.304Z,13.05
2022-11-15T17:12:53.437Z,12.35
2022-11-15T17:15:20.226Z,13.27
2022-11-15T17:17:53.040Z,12.70
2022-11-15T17:20:24.882Z,12.82
2022-11-15T17:22:52.842Z,13.55
2022-11-15T17:25:19.878Z,12.68
2022-11-15T17:27:46.808Z,13.07
2022-11-15T17:30:15.596Z,12.82
2022-11-15T17:32:43.216Z,12.55
2022-11-15T17:35:15.624Z,12.85
2022-11-15T17:37:43.427Z,12.80
2022-11-15T17:40:10.963Z,13.20
2022-11-15T17:42:37.747Z,13.63
2022-11-15T17:45:09.870Z,13.45
2022-11-15T17:47:37.389Z,13.77
2022-11-15T17:50:04.601Z,13.30
2022-11-15T17:52:31.415Z,13.15
2022-11-15T17:54:58.321Z,14.25
2022-11-15T17:57:25.267Z,14.48
2022-11-15T17:59:52.198Z,14.32
2022-11-15T18:02:19.620Z,16.63
2022-11-15T18:04:46.628Z,16.27
2022-11-15T18:07:14.374Z,15.23
2022-11-15T18:09:44.300Z,16.58
2022-11-15T18:12:12.396Z,15.95
2022-11-15T18:14:39.647Z,15.85
2022-11-15T18:17:06.689Z,17.45
2022-11-15T18:19:34.869Z,17.67
2022-11-15T18:22:04.440Z,17.92
2022-11-15T18:24:35.026Z,19.05
2022-11-15T18:27:03.756Z,17.25
2022-11-15T18:29:31.090Z,19.77
2022-11-15T18:31:59.046Z,19.02
2022-11-15T18:34:31.900Z,18.83
2022-11-15T18:36:59.148Z,20.30
2022-11-15T18:39:25.902Z,19.83
2022-11-15T18:41:52.933Z,20.85
2022-11-15T18:44:19.661Z,20.50
2022-11-15T18:46:46.880Z,23.08
2022-11-15T18:49:14.973Z,24.42
2022-11-15T18:51:42.226Z,24.80
2022-11-15T18:54:11.208Z,23.45
2022-11-15T18:56:41.864Z,23.60
2022-11-15T18:59:09.026Z,26.05
2022-11-15T19:01:38.375Z,25.98
2022-11-15T19:04:09.428Z,26.17
2022-11-15T19:06:44.216Z,25.92
2022-11-15T19:09:14.110Z,26.15
2022-11-15T19:11:41.971Z,25.20
2022-11-15T19:14:13.796Z,24.50
2022-11-15T19:16:44.667Z,25.17
2022-11-15T19:19:16.597Z,25.42
2022-11-15T19:21:43.835Z,25.25
2022-11-15T19:24:10.789Z,26.20
2022-11-15T19:26:38.404Z,27.00
2022-11-15T19:29:07.336Z,31.67
2022-11-15T19:31:34.758Z,35.10
2022-11-15T19:34:04.890Z,32.42
2022-11-15T19:36:33.656Z,31.58
2022-11-15T19:39:05.302Z,29.40
2022-11-15T19:41:32.387Z,29.83
2022-11-15T19:43:59.110Z,28.88
2022-11-15T19:46:27.038Z,27.05
2022-11-15T19:48:54.899Z,27.42
2022-11-15T19:51:24.796Z,28.50
2022-11-15T19:53:56.760Z,26.95
2022-11-15T19:56:24.225Z,28.00
2022-11-15T19:58:52.811Z,26.60
2022-11-15T20:01:22.511Z,27.33
2022-11-15T20:03:50.309Z,27.30
2022-11-15T20:06:19.058Z,27.50
2022-11-15T20:08:47.107Z,29.00
2022-11-15T20:11:14.696Z,30.10
2022-11-15T20:13:42.306Z,28.30
2022-11-15T20:16:10.817Z,28.65
2022-11-15T20:18:37.760Z,27.70
2022-11-15T20:21:06.491Z,28.27
2022-11-15T20:23:33.572Z,28.23
2022-11-15T20:26:00.469Z,28.05
2022-11-15T20:28:28.302Z,31.98
2022-11-15T20:30:57.605Z,40.60
2022-11-15T20:33:24.550Z,48.45
2022-11-15T20:35:51.610Z,36.40
2022-11-15T20:38:19.234Z,33.72
2022-11-15T20:40:46.643Z,31.10
2022-11-15T20:43:15.509Z,30.55
2022-11-15T20:45:50.538Z,30.02
2022-11-15T20:48:17.892Z,30.45
2022-11-15T20:50:46.059Z,29.05
2022-11-15T20:53:16.581Z,30.40
2022-11-15T20:55:45.333Z,31.10
2022-11-15T20:58:12.216Z,30.10
2022-11-15T21:00:39.275Z,31.30
2022-11-15T21:03:07.071Z,33.05
2022-11-15T21:05:44.471Z,31.38
2022-11-15T21:08:12.133Z,31.85
2022-11-15T21:10:59.522Z,33.17
2022-11-15T21:13:26.878Z,31.00
2022-11-15T21:15:57.932Z,33.42
2022-11-15T21:18:25.147Z,31.27
2022-11-15T21:20:52.330Z,33.10
2022-11-15T21:23:19.157Z,31.95
2022-11-15T21:25:52.157Z,32.53
2022-11-15T21:28:19.294Z,30.65
2022-11-15T21:31:00.326Z,31.08
2022-11-15T21:33:27.926Z,32.55
2022-11-15T21:35:55.720Z,31.45
2022-11-15T21:38:26.322Z,30.10
2022-11-15T21:40:53.542Z,29.85
2022-11-15T21:43:21.525Z,29.88
2022-11-15T21:46:00.277Z,30.60
2022-11-15T21:48:28.097Z,29.50
2022-11-15T21:50:56.654Z,30.60
2022-11-15T21:53:23.595Z,29.05
2022-11-15T21:55:50.353Z,30.25
2022-11-15T21:58:17.353Z,28.00
2022-11-15T22:01:03.154Z,28.02
2022-11-15T22:03:31.290Z,29.10
2022-11-15T22:05:58.002Z,28.60
2022-11-15T22:08:25.013Z,29.35
2022-11-15T22:10:53.106Z,28.67
2022-11-15T22:13:20.569Z,28.33
2022-11-15T22:15:47.586Z,27.90
2022-11-15T22:18:14.651Z,27.48
2022-11-15T22:20:45.348Z,28.50
2022-11-15T22:23:12.280Z,27.70
2022-11-15T22:25:39.126Z,27.98
2022-11-15T22:28:05.796Z,26.98
2022-11-15T22:30:32.563Z,28.75
2022-11-15T22:32:59.257Z,27.55
2022-11-15T22:35:26.038Z,28.42
2022-11-15T22:37:52.936Z,28.00
2022-11-15T22:40:19.845Z,27.20
2022-11-15T22:42:46.517Z,27.80
2022-11-15T22:45:13.601Z,27.50
2022-11-15T22:47:40.325Z,27.05
2022-11-15T22:50:07.728Z,26.73
2022-11-15T22:52:34.388Z,26.90
2022-11-15T22:55:01.217Z,27.15
2022-11-15T22:57:27.856Z,26.90
2022-11-15T22:59:54.564Z,27.10
2022-11-15T23:02:21.325Z,26.25
2022-11-15T23:04:48.189Z,26.85
2022-11-15T23:07:14.911Z,26.95
2022-11-15T23:09:41.648Z,26.10
2022-11-15T23:12:30.337Z,26.38
2022-11-15T23:14:57.026Z,25.30
2022-11-15T23:17:23.796Z,26.77
2022-11-15T23:19:50.449Z,27.25
2022-11-15T23:22:35.713Z,26.60
2022-11-15T23:25:02.402Z,26.33
2022-11-15T23:27:29.158Z,26.45
2022-11-15T23:30:14.578Z,25.40
2022-11-15T23:32:59.817Z,25.70
2022-11-15T23:35:27.926Z,26.63
2022-11-15T23:37:54.624Z,25.60
2022-11-15T23:40:21.397Z,24.40
2022-11-15T23:42:48.272Z,26.20
2022-11-15T23:45:14.960Z,26.13
2022-11-15T23:47:41.630Z,24.95
2022-11-15T23:50:08.552Z,25.17
2022-11-15T23:52:35.540Z,27.27
2022-11-15T23:55:02.327Z,26.15
2022-11-15T23:57:29.000Z,26.48
2022-11-15T23:59:55.720Z,26.35
